aviador You're here:

LFBU Decoded Metar

ANGOULEME in FRANCE
Report Time2017-08-22 09:00:00
UTC Time2017-08-22 09:06:21
Flight Rules vfr VFR
Wind130° at 05 kt
W.Decomp.*RWY 10: 4.3 kt HW 2.6 kt RCW
W.Rank130° ranks 20
Current wind is below 130° avg. (5.3)
Visibility9999 m
Phenomena:N/A
Clouds:N/A
Expected CloudBase > 4,800 ft AGL from Temp-Dew spread
CeilingNone
Temp26°C (ISA +12)
Dew Point14°C (48% RH)
AAT25.5°C
QNH1016 hPa
Density Alt1,923 ft
Elevation436 ft
Report Wrong Elevation
Raw Report
METAR LFBU 220900Z AUTO 13005KT 080V180 CAVOK 26/14 Q1016 NOSIG=

Extra information for LFBU:More info

Metar Taf Metar & Taf Last 4 Metars F.Rules Stats Wind Profile Meteogram Temp Stats Airport Information Weather charts Add Link Nearby VenuesMetar ALERT Operation Metar Decoded Social comments